sensor_id;sensor_type;location;lat;lon;timestamp;temperature;humidity
26037;DHT22;13810;48.376;10.944;2022-10-26T00:00:00;9.80;99.90
26037;DHT22;13810;48.376;10.944;2022-10-26T00:00:31;9.80;99.90
26037;DHT22;13810;48.376;10.944;2022-10-26T00:01:07;9.80;99.90
26037;DHT22;13810;48.376;10.944;2022-10-26T00:01:38;9.80;99.90
26037;DHT22;13810;48.376;10.944;2022-10-26T00:02:08;9.80;99.90
26037;DHT22;13810;48.376;10.944;2022-10-26T00:02:39;9.80;99.90
26037;DHT22;13810;48.376;10.944;2022-10-26T00:03:10;9.80;99.90
26037;DHT22;13810;48.376;10.944;2022-10-26T00:03:42;9.80;99.90
26037;DHT22;13810;48.376;10.944;2022-10-26T00:04:13;9.80;99.90
26037;DHT22;13810;48.376;10.944;2022-10-26T00:04:43;9.80;99.90
26037;DHT22;13810;48.376;10.944;2022-10-26T00:05:14;9.90;99.90
26037;DHT22;13810;48.376;10.944;2022-10-26T00:05:45;9.90;99.90
26037;DHT22;13810;48.376;10.944;2022-10-26T00:06:18;9.90;99.90
26037;DHT22;13810;48.376;10.944;2022-10-26T00:06:48;9.90;99.90
26037;DHT22;13810;48.376;10.944;2022-10-26T00:07:19;9.80;99.90
26037;DHT22;13810;48.376;10.944;2022-10-26T00:07:50;9.90;99.90
26037;DHT22;13810;48.376;10.944;2022-10-26T00:08:20;9.90;99.90
26037;DHT22;13810;48.376;10.944;2022-10-26T00:08:51;9.90;99.90
26037;DHT22;13810;48.376;10.944;2022-10-26T00:09:22;9.90;99.90
26037;DHT22;13810;48.376;10.944;2022-10-26T00:09:53;9.90;99.90
26037;DHT22;13810;48.376;10.944;2022-10-26T00:10:25;9.90;99.90
26037;DHT22;13810;48.376;10.944;2022-10-26T00:10:59;9.90;99.90
26037;DHT22;13810;48.376;10.944;2022-10-26T00:11:29;9.90;99.90
26037;DHT22;13810;48.376;10.944;2022-10-26T00:12:00;9.90;99.90
26037;DHT22;13810;48.376;10.944;2022-10-26T00:12:31;9.90;99.90
26037;DHT22;13810;48.376;10.944;2022-10-26T00:13:03;9.90;99.90
26037;DHT22;13810;48.376;10.944;2022-10-26T00:13:35;9.90;99.90
26037;DHT22;13810;48.376;10.944;2022-10-26T00:14:06;9.90;99.90
26037;DHT22;13810;48.376;10.944;2022-10-26T00:14:37;9.90;99.90
26037;DHT22;13810;48.376;10.944;2022-10-26T00:15:07;9.90;99.90
26037;DHT22;13810;48.376;10.944;2022-10-26T00:15:39;9.90;99.90
26037;DHT22;13810;48.376;10.944;2022-10-26T00:16:20;10.00;99.90
26037;DHT22;13810;48.376;10.944;2022-10-26T00:16:51;10.00;99.90
26037;DHT22;13810;48.376;10.944;2022-10-26T00:17:21;10.00;99.90
26037;DHT22;13810;48.376;10.944;2022-10-26T00:17:52;10.00;99.90
26037;DHT22;13810;48.376;10.944;2022-10-26T00:18:23;10.00;99.90
26037;DHT22;13810;48.376;10.944;2022-10-26T00:18:54;10.00;99.90
26037;DHT22;13810;48.376;10.944;2022-10-26T00:19:24;10.00;99.90
26037;DHT22;13810;48.376;10.944;2022-10-26T00:19:55;10.00;99.90
26037;DHT22;13810;48.376;10.944;2022-10-26T00:20:27;10.00;99.90
26037;DHT22;13810;48.376;10.944;2022-10-26T00:21:05;10.00;99.90
26037;DHT22;13810;48.376;10.944;2022-10-26T00:21:36;10.00;99.90
26037;DHT22;13810;48.376;10.944;2022-10-26T00:22:06;10.00;99.90
26037;DHT22;13810;48.376;10.944;2022-10-26T00:22:37;10.10;99.90
26037;DHT22;13810;48.376;10.944;2022-10-26T00:23:08;10.10;99.90
26037;DHT22;13810;48.376;10.944;2022-10-26T00:23:38;10.10;99.90
26037;DHT22;13810;48.376;10.944;2022-10-26T00:24:12;10.10;99.90
26037;DHT22;13810;48.376;10.944;2022-10-26T00:24:43;10.00;99.90
26037;DHT22;13810;48.376;10.944;2022-10-26T00:25:13;10.10;99.90
26037;DHT22;13810;48.376;10.944;2022-10-26T00:25:44;10.10;99.90
26037;DHT22;13810;48.376;10.944;2022-10-26T00:26:22;10.10;99.90
26037;DHT22;13810;48.376;10.944;2022-10-26T00:26:53;10.10;99.90
26037;DHT22;13810;48.376;10.944;2022-10-26T00:27:24;10.00;99.90
26037;DHT22;13810;48.376;10.944;2022-10-26T00:27:54;10.10;99.90
26037;DHT22;13810;48.376;10.944;2022-10-26T00:28:25;10.00;99.90
26037;DHT22;13810;48.376;10.944;2022-10-26T00:28:56;10.00;99.90
26037;DHT22;13810;48.376;10.944;2022-10-26T00:29:27;10.00;99.90
26037;DHT22;13810;48.376;10.944;2022-10-26T00:29:57;10.00;99.90
26037;DHT22;13810;48.376;10.944;2022-10-26T00:30:28;10.00;99.90
26037;DHT22;13810;48.376;10.944;2022-10-26T00:31:00;10.00;99.90
26037;DHT22;13810;48.376;10.944;2022-10-26T00:31:31;10.00;99.90
26037;DHT22;13810;48.376;10.944;2022-10-26T00:32:02;10.00;99.90
26037;DHT22;13810;48.376;10.944;2022-10-26T00:32:33;10.00;99.90
26037;DHT22;13810;48.376;10.944;2022-10-26T00:33:03;10.10;99.90
26037;DHT22;13810;48.376;10.944;2022-10-26T00:33:34;10.10;99.90
26037;DHT22;13810;48.376;10.944;2022-10-26T00:34:05;10.00;99.90
26037;DHT22;13810;48.376;10.944;2022-10-26T00:34:36;10.00;99.90
26037;DHT22;13810;48.376;10.944;2022-10-26T00:35:07;10.00;99.90
26037;DHT22;13810;48.376;10.944;2022-10-26T00:35:37;10.00;99.90
26037;DHT22;13810;48.376;10.944;2022-10-26T00:36:09;10.00;99.90
26037;DHT22;13810;48.376;10.944;2022-10-26T00:36:40;10.00;99.90
26037;DHT22;13810;48.376;10.944;2022-10-26T00:37:10;10.00;99.90
26037;DHT22;13810;48.376;10.944;2022-10-26T00:37:41;10.00;99.90
26037;DHT22;13810;48.376;10.944;2022-10-26T00:38:12;10.00;99.90
26037;DHT22;13810;48.376;10.944;2022-10-26T00:38:50;10.00;99.90
26037;DHT22;13810;48.376;10.944;2022-10-26T00:39:21;10.00;99.90
26037;DHT22;13810;48.376;10.944;2022-10-26T00:39:51;10.00;99.90
26037;DHT22;13810;48.376;10.944;2022-10-26T00:40:27;10.10;99.90
26037;DHT22;13810;48.376;10.944;2022-10-26T00:40:57;10.10;99.90
26037;DHT22;13810;48.376;10.944;2022-10-26T00:41:30;10.10;99.90
26037;DHT22;13810;48.376;10.944;2022-10-26T00:42:01;10.10;99.90
26037;DHT22;13810;48.376;10.944;2022-10-26T00:42:32;10.10;99.90
26037;DHT22;13810;48.376;10.944;2022-10-26T00:43:05;10.10;99.90
26037;DHT22;13810;48.376;10.944;2022-10-26T00:43:37;10.10;99.90
26037;DHT22;13810;48.376;10.944;2022-10-26T00:45:23;10.10;99.90
26037;DHT22;13810;48.376;10.944;2022-10-26T00:45:56;10.10;99.90
26037;DHT22;13810;48.376;10.944;2022-10-26T00:46:34;10.10;99.90
26037;DHT22;13810;48.376;10.944;2022-10-26T00:47:09;10.20;99.90
26037;DHT22;13810;48.376;10.944;2022-10-26T00:47:46;10.20;99.90
26037;DHT22;13810;48.376;10.944;2022-10-26T00:48:28;10.20;99.90
26037;DHT22;13810;48.376;10.944;2022-10-26T00:49:13;10.20;99.90
26037;DHT22;13810;48.376;10.944;2022-10-26T00:49:48;10.20;99.90
26037;DHT22;13810;48.376;10.944;2022-10-26T00:50:25;10.20;99.90
26037;DHT22;13810;48.376;10.944;2022-10-26T00:50:59;10.20;99.90
26037;DHT22;13810;48.376;10.944;2022-10-26T00:51:41;10.20;99.90
26037;DHT22;13810;48.376;10.944;2022-10-26T00:52:13;10.20;99.90
26037;DHT22;13810;48.376;10.944;2022-10-26T00:52:44;10.20;99.90
26037;DHT22;13810;48.376;10.944;2022-10-26T00:53:16;10.20;99.90
26037;DHT22;13810;48.376;10.944;2022-10-26T00:53:47;10.20;99.90
26037;DHT22;13810;48.376;10.944;2022-10-26T00:54:18;10.20;99.90
26037;DHT22;13810;48.376;10.944;2022-10-26T00:54:50;10.20;99.90
26037;DHT22;13810;48.376;10.944;2022-10-26T00:55:24;10.20;99.90
26037;DHT22;13810;48.376;10.944;2022-10-26T00:55:56;10.30;99.90
26037;DHT22;13810;48.376;10.944;2022-10-26T00:56:27;10.30;99.90
26037;DHT22;13810;48.376;10.944;2022-10-26T00:56:58;10.30;99.90
26037;DHT22;13810;48.376;10.944;2022-10-26T00:57:29;10.30;99.90
26037;DHT22;13810;48.376;10.944;2022-10-26T00:58:02;10.30;99.90
26037;DHT22;13810;48.376;10.944;2022-10-26T00:58:35;10.30;99.90
26037;DHT22;13810;48.376;10.944;2022-10-26T00:59:09;10.30;99.90
26037;DHT22;13810;48.376;10.944;2022-10-26T00:59:42;10.30;99.90
26037;DHT22;13810;48.376;10.944;2022-10-26T01:00:14;10.20;99.90
26037;DHT22;13810;48.376;10.944;2022-10-26T01:00:45;10.30;99.90
26037;DHT22;13810;48.376;10.944;2022-10-26T01:01:17;10.30;99.90
26037;DHT22;13810;48.376;10.944;2022-10-26T01:01:48;10.30;99.90
26037;DHT22;13810;48.376;10.944;2022-10-26T01:02:19;10.30;99.90
26037;DHT22;13810;48.376;10.944;2022-10-26T01:02:51;10.30;99.90
26037;DHT22;13810;48.376;10.944;2022-10-26T01:03:24;10.30;99.90
26037;DHT22;13810;48.376;10.944;2022-10-26T01:03:57;10.30;99.90
26037;DHT22;13810;48.376;10.944;2022-10-26T01:04:29;10.30;99.90
26037;DHT22;13810;48.376;10.944;2022-10-26T01:05:02;10.30;99.90
26037;DHT22;13810;48.376;10.944;2022-10-26T01:05:34;10.30;99.90
26037;DHT22;13810;48.376;10.944;2022-10-26T01:06:07;10.30;99.90
26037;DHT22;13810;48.376;10.944;2022-10-26T01:06:40;10.30;99.90
26037;DHT22;13810;48.376;10.944;2022-10-26T01:07:11;10.40;99.90
26037;DHT22;13810;48.376;10.944;2022-10-26T01:07:43;10.40;99.90
26037;DHT22;13810;48.376;10.944;2022-10-26T01:08:16;10.30;99.90
26037;DHT22;13810;48.376;10.944;2022-10-26T01:08:47;10.40;99.90
26037;DHT22;13810;48.376;10.944;2022-10-26T01:09:19;10.40;99.90
26037;DHT22;13810;48.376;10.944;2022-10-26T01:09:50;10.40;99.90
26037;DHT22;13810;48.376;10.944;2022-10-26T01:10:21;10.40;99.90
26037;DHT22;13810;48.376;10.944;2022-10-26T01:10:52;10.40;99.90
26037;DHT22;13810;48.376;10.944;2022-10-26T01:11:23;10.40;99.90
26037;DHT22;13810;48.376;10.944;2022-10-26T01:11:54;10.40;99.90
26037;DHT22;13810;48.376;10.944;2022-10-26T01:12:25;10.40;99.90
26037;DHT22;13810;48.376;10.944;2022-10-26T01:12:57;10.40;99.90
26037;DHT22;13810;48.376;10.944;2022-10-26T01:13:31;10.40;99.90
26037;DHT22;13810;48.376;10.944;2022-10-26T01:14:05;10.40;99.90
26037;DHT22;13810;48.376;10.944;2022-10-26T01:14:38;10.40;99.90
26037;DHT22;13810;48.376;10.944;2022-10-26T01:15:09;10.40;99.90
26037;DHT22;13810;48.376;10.944;2022-10-26T01:17:36;10.40;99.90
26037;DHT22;13810;48.376;10.944;2022-10-26T01:18:39;10.50;99.90
26037;DHT22;13810;48.376;10.944;2022-10-26T01:28:02;10.40;99.90
26037;DHT22;13810;48.376;10.944;2022-10-26T01:29:13;10.50;99.90
26037;DHT22;13810;48.376;10.944;2022-10-26T01:30:35;10.50;99.90
26037;DHT22;13810;48.376;10.944;2022-10-26T01:31:11;10.50;99.90
26037;DHT22;13810;48.376;10.944;2022-10-26T01:31:56;10.40;99.90
26037;DHT22;13810;48.376;10.944;2022-10-26T01:33:45;10.50;99.90
26037;DHT22;13810;48.376;10.944;2022-10-26T01:34:26;10.50;99.90
26037;DHT22;13810;48.376;10.944;2022-10-26T01:35:49;10.50;99.90
26037;DHT22;13810;48.376;10.944;2022-10-26T01:36:43;10.50;99.90
26037;DHT22;13810;48.376;10.944;2022-10-26T01:37:25;10.40;99.90
26037;DHT22;13810;48.376;10.944;2022-10-26T01:38:10;10.50;99.90
26037;DHT22;13810;48.376;10.944;2022-10-26T01:38:53;10.50;99.90
26037;DHT22;13810;48.376;10.944;2022-10-26T01:39:38;10.50;99.90
26037;DHT22;13810;48.376;10.944;2022-10-26T01:40:22;10.50;99.90
26037;DHT22;13810;48.376;10.944;2022-10-26T01:41:01;10.50;99.90
26037;DHT22;13810;48.376;10.944;2022-10-26T01:41:48;10.50;99.90
26037;DHT22;13810;48.376;10.944;2022-10-26T01:42:20;10.50;99.90
26037;DHT22;13810;48.376;10.944;2022-10-26T01:42:54;10.50;99.90
26037;DHT22;13810;48.376;10.944;2022-10-26T01:43:30;10.50;99.90
26037;DHT22;13810;48.376;10.944;2022-10-26T01:44:23;10.50;99.90
26037;DHT22;13810;48.376;10.944;2022-10-26T01:45:06;10.50;99.90
26037;DHT22;13810;48.376;10.944;2022-10-26T01:45:41;10.50;99.90
26037;DHT22;13810;48.376;10.944;2022-10-26T01:46:14;10.50;99.90
26037;DHT22;13810;48.376;10.944;2022-10-26T01:46:48;10.50;99.90
26037;DHT22;13810;48.376;10.944;2022-10-26T01:47:22;10.50;99.90
26037;DHT22;13810;48.376;10.944;2022-10-26T01:47:54;10.50;99.90
26037;DHT22;13810;48.376;10.944;2022-10-26T01:48:26;10.50;99.90
26037;DHT22;13810;48.376;10.944;2022-10-26T01:49:02;10.50;99.90
26037;DHT22;13810;48.376;10.944;2022-10-26T01:49:38;10.50;99.90
26037;DHT22;13810;48.376;10.944;2022-10-26T01:50:10;10.50;99.90
26037;DHT22;13810;48.376;10.944;2022-10-26T01:50:43;10.50;99.90
26037;DHT22;13810;48.376;10.944;2022-10-26T01:51:15;10.50;99.90
26037;DHT22;13810;48.376;10.944;2022-10-26T01:51:48;10.50;99.90
26037;DHT22;13810;48.376;10.944;2022-10-26T01:52:20;10.50;99.90
26037;DHT22;13810;48.376;10.944;2022-10-26T01:52:50;10.50;99.90
26037;DHT22;13810;48.376;10.944;2022-10-26T01:53:21;10.50;99.90
26037;DHT22;13810;48.376;10.944;2022-10-26T01:53:52;10.50;99.90
26037;DHT22;13810;48.376;10.944;2022-10-26T01:54:22;10.50;99.90
26037;DHT22;13810;48.376;10.944;2022-10-26T01:55:00;10.50;99.90
26037;DHT22;13810;48.376;10.944;2022-10-26T01:56:13;10.60;99.90
26037;DHT22;13810;48.376;10.944;2022-10-26T01:56:54;10.60;99.90
26037;DHT22;13810;48.376;10.944;2022-10-26T01:57:27;10.60;99.90
26037;DHT22;13810;48.376;10.944;2022-10-26T02:00:01;10.60;99.90
26037;DHT22;13810;48.376;10.944;2022-10-26T02:00:37;10.60;99.90
26037;DHT22;13810;48.376;10.944;2022-10-26T02:01:26;10.60;99.90
26037;DHT22;13810;48.376;10.944;2022-10-26T02:02:26;10.60;99.90
26037;DHT22;13810;48.376;10.944;2022-10-26T02:05:05;10.60;99.90
26037;DHT22;13810;48.376;10.944;2022-10-26T02:06:41;10.60;99.90
26037;DHT22;13810;48.376;10.944;2022-10-26T02:11:35;10.60;99.90
26037;DHT22;13810;48.376;10.944;2022-10-26T02:12:14;10.60;99.90
26037;DHT22;13810;48.376;10.944;2022-10-26T02:14:48;10.60;99.90
26037;DHT22;13810;48.376;10.944;2022-10-26T02:16:03;10.60;99.90
26037;DHT22;13810;48.376;10.944;2022-10-26T02:16:42;10.60;99.90
26037;DHT22;13810;48.376;10.944;2022-10-26T02:17:27;10.60;99.90
26037;DHT22;13810;48.376;10.944;2022-10-26T02:18:03;10.60;99.90
26037;DHT22;13810;48.376;10.944;2022-10-26T02:19:37;10.60;99.90
26037;DHT22;13810;48.376;10.944;2022-10-26T02:20:21;10.60;99.90
26037;DHT22;13810;48.376;10.944;2022-10-26T02:20:57;10.60;99.90
26037;DHT22;13810;48.376;10.944;2022-10-26T02:21:41;10.60;99.90
26037;DHT22;13810;48.376;10.944;2022-10-26T02:22:26;10.60;99.90
26037;DHT22;13810;48.376;10.944;2022-10-26T02:23:01;10.60;99.90
26037;DHT22;13810;48.376;10.944;2022-10-26T02:23:36;10.60;99.90
26037;DHT22;13810;48.376;10.944;2022-10-26T02:24:10;10.70;99.90
26037;DHT22;13810;48.376;10.944;2022-10-26T02:24:42;10.70;99.90
26037;DHT22;13810;48.376;10.944;2022-10-26T02:25:24;10.70;99.90
26037;DHT22;13810;48.376;10.944;2022-10-26T02:25:58;10.70;99.90
26037;DHT22;13810;48.376;10.944;2022-10-26T02:26:30;10.70;99.90
26037;DHT22;13810;48.376;10.944;2022-10-26T02:27:05;10.70;99.90
26037;DHT22;13810;48.376;10.944;2022-10-26T02:27:40;10.70;99.90
26037;DHT22;13810;48.376;10.944;2022-10-26T02:28:17;10.70;99.90
26037;DHT22;13810;48.376;10.944;2022-10-26T02:28:51;10.70;99.90
26037;DHT22;13810;48.376;10.944;2022-10-26T02:29:24;10.70;99.90
26037;DHT22;13810;48.376;10.944;2022-10-26T02:29:56;10.70;99.90
26037;DHT22;13810;48.376;10.944;2022-10-26T02:30:27;10.70;99.90
26037;DHT22;13810;48.376;10.944;2022-10-26T02:31:00;10.70;99.90
26037;DHT22;13810;48.376;10.944;2022-10-26T02:31:32;10.70;99.90
26037;DHT22;13810;48.376;10.944;2022-10-26T02:32:06;10.70;99.90
26037;DHT22;13810;48.376;10.944;2022-10-26T02:32:40;10.70;99.90
26037;DHT22;13810;48.376;10.944;2022-10-26T02:33:13;10.70;99.90
26037;DHT22;13810;48.376;10.944;2022-10-26T02:33:49;10.70;99.90
26037;DHT22;13810;48.376;10.944;2022-10-26T02:34:24;10.70;99.90
26037;DHT22;13810;48.376;10.944;2022-10-26T02:34:57;10.70;99.90
26037;DHT22;13810;48.376;10.944;2022-10-26T02:35:31;10.70;99.90
26037;DHT22;13810;48.376;10.944;2022-10-26T02:36:07;10.70;99.90
26037;DHT22;13810;48.376;10.944;2022-10-26T02:36:42;10.70;99.90
26037;DHT22;13810;48.376;10.944;2022-10-26T02:37:17;10.70;99.90
26037;DHT22;13810;48.376;10.944;2022-10-26T02:37:50;10.70;99.90
26037;DHT22;13810;48.376;10.944;2022-10-26T02:38:22;10.70;99.90
26037;DHT22;13810;48.376;10.944;2022-10-26T02:38:54;10.70;99.90
26037;DHT22;13810;48.376;10.944;2022-10-26T02:39:29;10.70;99.90
26037;DHT22;13810;48.376;10.944;2022-10-26T02:40:06;10.60;99.90
26037;DHT22;13810;48.376;10.944;2022-10-26T02:40:39;10.70;99.90
26037;DHT22;13810;48.376;10.944;2022-10-26T02:41:11;10.70;99.90
26037;DHT22;13810;48.376;10.944;2022-10-26T02:41:44;10.70;99.90
26037;DHT22;13810;48.376;10.944;2022-10-26T02:42:15;10.70;99.90
26037;DHT22;13810;48.376;10.944;2022-10-26T02:42:49;10.70;99.90
26037;DHT22;13810;48.376;10.944;2022-10-26T02:43:22;10.70;99.90
26037;DHT22;13810;48.376;10.944;2022-10-26T02:44:07;10.70;99.90
26037;DHT22;13810;48.376;10.944;2022-10-26T02:45:02;10.70;99.90
26037;DHT22;13810;48.376;10.944;2022-10-26T02:45:37;10.70;99.90
26037;DHT22;13810;48.376;10.944;2022-10-26T02:46:12;10.70;99.90
26037;DHT22;13810;48.376;10.944;2022-10-26T02:46:44;10.70;99.90
26037;DHT22;13810;48.376;10.944;2022-10-26T02:47:16;10.70;99.90
26037;DHT22;13810;48.376;10.944;2022-10-26T02:47:47;10.70;99.90
26037;DHT22;13810;48.376;10.944;2022-10-26T02:48:18;10.70;99.90
26037;DHT22;13810;48.376;10.944;2022-10-26T02:48:49;10.70;99.90
26037;DHT22;13810;48.376;10.944;2022-10-26T02:49:20;10.70;99.90
26037;DHT22;13810;48.376;10.944;2022-10-26T02:49:51;10.70;99.90
26037;DHT22;13810;48.376;10.944;2022-10-26T02:50:28;10.70;99.90
26037;DHT22;13810;48.376;10.944;2022-10-26T02:51:50;10.70;99.90
26037;DHT22;13810;48.376;10.944;2022-10-26T02:53:26;10.70;99.90
26037;DHT22;13810;48.376;10.944;2022-10-26T02:55:11;10.70;99.90
26037;DHT22;13810;48.376;10.944;2022-10-26T02:55:49;10.70;99.90
26037;DHT22;13810;48.376;10.944;2022-10-26T02:57:16;10.70;99.90
26037;DHT22;13810;48.376;10.944;2022-10-26T02:57:51;10.70;99.90
26037;DHT22;13810;48.376;10.944;2022-10-26T02:58:29;10.70;99.90
26037;DHT22;13810;48.376;10.944;2022-10-26T02:59:03;10.70;99.90
26037;DHT22;13810;48.376;10.944;2022-10-26T02:59:37;10.70;99.90
26037;DHT22;13810;48.376;10.944;2022-10-26T03:00:15;10.70;99.90
26037;DHT22;13810;48.376;10.944;2022-10-26T03:00:46;10.60;99.90
26037;DHT22;13810;48.376;10.944;2022-10-26T03:01:17;10.70;99.90
26037;DHT22;13810;48.376;10.944;2022-10-26T03:01:50;10.70;99.90
26037;DHT22;13810;48.376;10.944;2022-10-26T03:02:21;10.60;99.90
26037;DHT22;13810;48.376;10.944;2022-10-26T03:02:55;10.70;99.90
26037;DHT22;13810;48.376;10.944;2022-10-26T03:03:26;10.70;99.90
26037;DHT22;13810;48.376;10.944;2022-10-26T03:03:57;10.70;99.90
26037;DHT22;13810;48.376;10.944;2022-10-26T03:04:32;10.70;99.90
26037;DHT22;13810;48.376;10.944;2022-10-26T03:05:19;10.70;99.90
26037;DHT22;13810;48.376;10.944;2022-10-26T03:05:50;10.70;99.90
26037;DHT22;13810;48.376;10.944;2022-10-26T03:06:22;10.70;99.90
26037;DHT22;13810;48.376;10.944;2022-10-26T03:06:53;10.70;99.90
26037;DHT22;13810;48.376;10.944;2022-10-26T03:07:24;10.70;99.90
26037;DHT22;13810;48.376;10.944;2022-10-26T03:07:56;10.70;99.90
26037;DHT22;13810;48.376;10.944;2022-10-26T03:08:27;10.70;99.90
26037;DHT22;13810;48.376;10.944;2022-10-26T03:08:58;10.70;99.90
26037;DHT22;13810;48.376;10.944;2022-10-26T03:09:28;10.70;99.90
26037;DHT22;13810;48.376;10.944;2022-10-26T03:09:59;10.70;99.90
26037;DHT22;13810;48.376;10.944;2022-10-26T03:10:31;10.70;99.90
26037;DHT22;13810;48.376;10.944;2022-10-26T03:11:03;10.70;99.90
26037;DHT22;13810;48.376;10.944;2022-10-26T03:11:33;10.70;99.90
26037;DHT22;13810;48.376;10.944;2022-10-26T03:12:04;10.70;99.90
26037;DHT22;13810;48.376;10.944;2022-10-26T03:12:35;10.70;99.90
26037;DHT22;13810;48.376;10.944;2022-10-26T03:13:06;10.70;99.90
26037;DHT22;13810;48.376;10.944;2022-10-26T03:13:36;10.70;99.90
26037;DHT22;13810;48.376;10.944;2022-10-26T03:14:07;10.70;99.90
26037;DHT22;13810;48.376;10.944;2022-10-26T03:14:37;10.70;99.90
26037;DHT22;13810;48.376;10.944;2022-10-26T03:15:09;10.70;99.90
26037;DHT22;13810;48.376;10.944;2022-10-26T03:15:40;10.70;99.90
26037;DHT22;13810;48.376;10.944;2022-10-26T03:16:10;10.70;99.90
26037;DHT22;13810;48.376;10.944;2022-10-26T03:16:41;10.80;99.90
26037;DHT22;13810;48.376;10.944;2022-10-26T03:17:12;10.80;99.90
26037;DHT22;13810;48.376;10.944;2022-10-26T03:17:43;10.80;99.90
26037;DHT22;13810;48.376;10.944;2022-10-26T03:18:13;10.80;99.90
26037;DHT22;13810;48.376;10.944;2022-10-26T03:18:44;10.80;99.90
26037;DHT22;13810;48.376;10.944;2022-10-26T03:19:15;10.70;99.90
26037;DHT22;13810;48.376;10.944;2022-10-26T03:19:46;10.70;99.90
26037;DHT22;13810;48.376;10.944;2022-10-26T03:20:16;10.70;99.90
26037;DHT22;13810;48.376;10.944;2022-10-26T03:20:47;10.70;99.90
26037;DHT22;13810;48.376;10.944;2022-10-26T03:21:18;10.70;99.90
26037;DHT22;13810;48.376;10.944;2022-10-26T03:21:48;10.70;99.90
26037;DHT22;13810;48.376;10.944;2022-10-26T03:22:19;10.70;99.90
26037;DHT22;13810;48.376;10.944;2022-10-26T03:22:50;10.70;99.90
26037;DHT22;13810;48.376;10.944;2022-10-26T03:23:20;10.70;99.90
26037;DHT22;13810;48.376;10.944;2022-10-26T03:23:51;10.70;99.90
26037;DHT22;13810;48.376;10.944;2022-10-26T03:24:21;10.70;99.90
26037;DHT22;13810;48.376;10.944;2022-10-26T03:24:52;10.70;99.90
26037;DHT22;13810;48.376;10.944;2022-10-26T03:25:23;10.70;99.90
26037;DHT22;13810;48.376;10.944;2022-10-26T03:25:57;10.70;99.90
26037;DHT22;13810;48.376;10.944;2022-10-26T03:26:28;10.70;99.90
26037;DHT22;13810;48.376;10.944;2022-10-26T03:26:59;10.70;99.90
26037;DHT22;13810;48.376;10.944;2022-10-26T03:27:29;10.70;99.90
26037;DHT22;13810;48.376;10.944;2022-10-26T03:28:03;10.70;99.90
26037;DHT22;13810;48.376;10.944;2022-10-26T03:28:33;10.70;99.90
26037;DHT22;13810;48.376;10.944;2022-10-26T03:29:04;10.70;99.90
26037;DHT22;13810;48.376;10.944;2022-10-26T03:29:35;10.70;99.90
26037;DHT22;13810;48.376;10.944;2022-10-26T03:30:07;10.70;99.90
26037;DHT22;13810;48.376;10.944;2022-10-26T03:30:38;10.70;99.90
26037;DHT22;13810;48.376;10.944;2022-10-26T03:31:08;10.70;99.90
26037;DHT22;13810;48.376;10.944;2022-10-26T03:31:39;10.70;99.90
26037;DHT22;13810;48.376;10.944;2022-10-26T03:32:10;10.70;99.90
26037;DHT22;13810;48.376;10.944;2022-10-26T03:32:40;10.70;99.90
26037;DHT22;13810;48.376;10.944;2022-10-26T03:33:11;10.70;99.90
26037;DHT22;13810;48.376;10.944;2022-10-26T03:33:42;10.70;99.90
26037;DHT22;13810;48.376;10.944;2022-10-26T03:34:12;10.70;99.90
26037;DHT22;13810;48.376;10.944;2022-10-26T03:34:43;10.70;99.90
26037;DHT22;13810;48.376;10.944;2022-10-26T03:35:14;10.70;99.90
26037;DHT22;13810;48.376;10.944;2022-10-26T03:35:44;10.70;99.90
26037;DHT22;13810;48.376;10.944;2022-10-26T03:36:15;10.70;99.90
26037;DHT22;13810;48.376;10.944;2022-10-26T03:36:46;10.60;99.90
26037;DHT22;13810;48.376;10.944;2022-10-26T03:37:17;10.60;99.90
26037;DHT22;13810;48.376;10.944;2022-10-26T03:37:47;10.60;99.90
26037;DHT22;13810;48.376;10.944;2022-10-26T03:38:18;10.60;99.90
26037;DHT22;13810;48.376;10.944;2022-10-26T03:38:49;10.60;99.90
26037;DHT22;13810;48.376;10.944;2022-10-26T03:39:19;10.60;99.90
26037;DHT22;13810;48.376;10.944;2022-10-26T03:39:50;10.60;99.90
26037;DHT22;13810;48.376;10.944;2022-10-26T03:40:21;10.60;99.90
26037;DHT22;13810;48.376;10.944;2022-10-26T03:40:51;10.60;99.90
26037;DHT22;13810;48.376;10.944;2022-10-26T03:41:22;10.60;99.90
26037;DHT22;13810;48.376;10.944;2022-10-26T03:41:53;10.70;99.90
26037;DHT22;13810;48.376;10.944;2022-10-26T03:42:24;10.70;99.90
26037;DHT22;13810;48.376;10.944;2022-10-26T03:42:55;10.70;99.90
26037;DHT22;13810;48.376;10.944;2022-10-26T03:43:26;10.70;99.90
26037;DHT22;13810;48.376;10.944;2022-10-26T03:43:57;10.70;99.90
26037;DHT22;13810;48.376;10.944;2022-10-26T03:44:27;10.70;99.90
26037;DHT22;13810;48.376;10.944;2022-10-26T03:44:58;10.70;99.90
26037;DHT22;13810;48.376;10.944;2022-10-26T03:45:28;10.70;99.90
26037;DHT22;13810;48.376;10.944;2022-10-26T03:45:59;10.70;99.90
26037;DHT22;13810;48.376;10.944;2022-10-26T03:46:30;10.70;99.90
26037;DHT22;13810;48.376;10.944;2022-10-26T03:47:00;10.70;99.90
26037;DHT22;13810;48.376;10.944;2022-10-26T03:47:31;10.70;99.90
26037;DHT22;13810;48.376;10.944;2022-10-26T03:48:02;10.70;99.90
26037;DHT22;13810;48.376;10.944;2022-10-26T03:48:32;10.70;99.90
26037;DHT22;13810;48.376;10.944;2022-10-26T03:49:03;10.70;99.90
26037;DHT22;13810;48.376;10.944;2022-10-26T03:49:34;10.70;99.90
26037;DHT22;13810;48.376;10.944;2022-10-26T03:50:05;10.70;99.90
26037;DHT22;13810;48.376;10.944;2022-10-26T03:50:36;10.70;99.90
26037;DHT22;13810;48.376;10.944;2022-10-26T03:51:06;10.70;99.90
26037;DHT22;13810;48.376;10.944;2022-10-26T03:51:37;10.70;99.90
26037;DHT22;13810;48.376;10.944;2022-10-26T03:52:08;10.70;99.90
26037;DHT22;13810;48.376;10.944;2022-10-26T03:52:39;10.70;99.90
26037;DHT22;13810;48.376;10.944;2022-10-26T03:53:10;10.70;99.90
26037;DHT22;13810;48.376;10.944;2022-10-26T03:53:41;10.70;99.90
26037;DHT22;13810;48.376;10.944;2022-10-26T03:54:11;10.70;99.90
26037;DHT22;13810;48.376;10.944;2022-10-26T03:54:42;10.70;99.90
26037;DHT22;13810;48.376;10.944;2022-10-26T03:55:13;10.70;99.90
26037;DHT22;13810;48.376;10.944;2022-10-26T03:55:44;10.70;99.90
26037;DHT22;13810;48.376;10.944;2022-10-26T03:56:14;10.70;99.90
26037;DHT22;13810;48.376;10.944;2022-10-26T03:56:45;10.70;99.90
26037;DHT22;13810;48.376;10.944;2022-10-26T03:57:16;10.70;99.90
26037;DHT22;13810;48.376;10.944;2022-10-26T03:57:47;10.70;99.90
26037;DHT22;13810;48.376;10.944;2022-10-26T03:58:17;10.70;99.90
26037;DHT22;13810;48.376;10.944;2022-10-26T03:58:48;10.70;99.90
26037;DHT22;13810;48.376;10.944;2022-10-26T03:59:19;10.70;99.90